createdAt,value
2018-12-26T00:00:38.908Z,11.10
2018-12-26T00:03:08.306Z,14.27
2018-12-26T00:05:37.564Z,11.60
2018-12-26T00:08:06.945Z,13.07
2018-12-26T00:10:36.241Z,17.50
2018-12-26T00:13:05.528Z,11.93
2018-12-26T00:15:34.735Z,10.73
2018-12-26T00:18:03.939Z,15.40
2018-12-26T00:20:33.304Z,12.20
2018-12-26T00:23:02.554Z,11.80
2018-12-26T00:25:31.789Z,15.47
2018-12-26T00:28:01.254Z,15.60
2018-12-26T00:30:30.434Z,16.93
2018-12-26T00:32:59.771Z,16.60
2018-12-26T00:35:29.049Z,16.17
2018-12-26T00:37:58.227Z,20.43
2018-12-26T00:40:27.507Z,19.43
2018-12-26T00:42:56.861Z,17.03
2018-12-26T00:45:26.201Z,17.33
2018-12-26T00:47:55.529Z,20.23
2018-12-26T00:50:24.842Z,21.60
2018-12-26T00:52:54.081Z,18.20
2018-12-26T00:55:23.327Z,21.33
2018-12-26T00:57:52.612Z,20.83
2018-12-26T01:00:21.859Z,21.90
2018-12-26T01:02:51.197Z,21.77
2018-12-26T01:05:20.463Z,21.43
2018-12-26T01:07:49.713Z,23.77
2018-12-26T01:10:19.002Z,23.43
2018-12-26T01:12:48.310Z,21.93
2018-12-26T01:15:17.645Z,22.53
2018-12-26T01:17:46.963Z,22.33
2018-12-26T01:20:16.250Z,29.70
2018-12-26T01:22:45.732Z,22.73
2018-12-26T01:25:15.918Z,23.20
2018-12-26T01:27:45.177Z,25.67
2018-12-26T01:30:14.506Z,24.57
2018-12-26T01:32:43.830Z,28.03
2018-12-26T01:35:13.066Z,31.63
2018-12-26T01:37:42.367Z,27.83
2018-12-26T01:40:15.108Z,29.40
2018-12-26T01:42:44.379Z,26.43
2018-12-26T01:45:14.470Z,32.70
2018-12-26T01:47:43.723Z,27.27
2018-12-26T01:50:13.075Z,25.63
2018-12-26T01:52:42.493Z,26.67
2018-12-26T01:55:11.763Z,25.37
2018-12-26T01:57:41.042Z,25.63
2018-12-26T02:00:10.559Z,25.33
2018-12-26T02:02:39.763Z,28.47
2018-12-26T02:05:09.138Z,26.17
2018-12-26T02:07:38.488Z,29.00
2018-12-26T02:10:07.946Z,30.67
2018-12-26T02:12:37.309Z,25.70
2018-12-26T02:15:06.745Z,27.43
2018-12-26T02:17:35.955Z,30.27
2018-12-26T02:20:05.714Z,30.47
2018-12-26T02:22:35.069Z,26.27
2018-12-26T02:25:04.318Z,28.93
2018-12-26T02:27:33.615Z,32.17
2018-12-26T02:30:02.943Z,30.37
2018-12-26T02:32:32.196Z,31.40
2018-12-26T02:35:01.527Z,33.63
2018-12-26T02:37:30.770Z,31.30
2018-12-26T02:40:00.159Z,27.57
2018-12-26T02:42:29.367Z,30.37
2018-12-26T02:44:58.639Z,30.37
2018-12-26T02:47:28.002Z,28.80
2018-12-26T02:49:57.357Z,30.80
2018-12-26T02:52:26.605Z,29.10
2018-12-26T02:54:55.858Z,31.33
2018-12-26T02:57:25.131Z,31.50
2018-12-26T02:59:54.445Z,26.90
2018-12-26T03:02:23.686Z,28.83
2018-12-26T03:04:52.986Z,34.07
2018-12-26T03:07:22.278Z,36.90
2018-12-26T03:09:51.559Z,29.27
2018-12-26T03:12:20.884Z,25.60
2018-12-26T03:14:50.139Z,29.60
2018-12-26T03:17:19.489Z,24.37
2018-12-26T03:19:48.750Z,25.83
2018-12-26T03:22:17.992Z,23.43
2018-12-26T03:24:47.349Z,25.20
2018-12-26T03:27:16.606Z,23.97
2018-12-26T03:29:45.815Z,26.83
2018-12-26T03:32:15.068Z,24.93
2018-12-26T03:34:44.302Z,26.17
2018-12-26T03:37:14.075Z,25.30
2018-12-26T03:39:43.337Z,23.80
2018-12-26T03:42:12.636Z,30.90
2018-12-26T03:44:41.913Z,27.87
2018-12-26T03:47:11.323Z,27.20
2018-12-26T03:49:40.596Z,27.33
2018-12-26T03:52:10.169Z,25.60
2018-12-26T03:54:39.472Z,27.13
2018-12-26T03:57:08.924Z,26.60
2018-12-26T03:59:38.189Z,27.00
2018-12-26T04:02:07.385Z,26.73
2018-12-26T04:04:36.673Z,26.17
2018-12-26T04:07:05.921Z,23.37
2018-12-26T04:09:35.307Z,23.60
2018-12-26T04:12:04.680Z,22.03
2018-12-26T04:14:34.130Z,22.87
2018-12-26T04:17:03.730Z,20.47
2018-12-26T04:19:33.010Z,23.90
2018-12-26T04:22:02.299Z,21.83
2018-12-26T04:24:31.753Z,23.83
2018-12-26T04:27:01.001Z,25.43
2018-12-26T04:29:30.301Z,23.27
2018-12-26T04:31:59.651Z,22.87
2018-12-26T04:34:28.937Z,23.77
2018-12-26T04:36:58.283Z,23.40
2018-12-26T04:39:27.584Z,23.03
2018-12-26T04:41:56.783Z,22.90
2018-12-26T04:44:26.033Z,22.93
2018-12-26T04:46:55.318Z,23.67
2018-12-26T04:49:24.585Z,25.10
2018-12-26T04:51:53.900Z,23.13
2018-12-26T04:54:23.149Z,20.10
2018-12-26T04:56:52.450Z,22.83
2018-12-26T04:59:21.733Z,22.70
2018-12-26T05:01:51.036Z,29.57
2018-12-26T05:04:20.421Z,24.10
2018-12-26T05:06:49.737Z,21.50
2018-12-26T05:09:18.965Z,22.13
2018-12-26T05:11:48.218Z,25.23
2018-12-26T05:14:17.453Z,26.07
2018-12-26T05:16:46.727Z,23.27
2018-12-26T05:19:15.989Z,31.33
2018-12-26T05:21:45.275Z,30.80
2018-12-26T05:24:14.502Z,26.40
2018-12-26T05:26:43.781Z,26.73
2018-12-26T05:29:13.138Z,26.93
2018-12-26T05:31:42.425Z,26.03
2018-12-26T05:34:11.724Z,26.33
2018-12-26T05:36:40.998Z,24.87
2018-12-26T05:39:10.298Z,28.17
2018-12-26T05:41:39.561Z,27.53
2018-12-26T05:44:08.811Z,24.47
2018-12-26T05:46:38.110Z,24.30
2018-12-26T05:49:07.367Z,27.37
2018-12-26T05:51:36.772Z,25.70
2018-12-26T05:54:06.133Z,25.63
2018-12-26T05:56:35.330Z,22.93
2018-12-26T05:59:04.590Z,26.23
2018-12-26T06:01:33.910Z,24.27
2018-12-26T06:04:03.148Z,23.47
2018-12-26T06:06:32.407Z,23.50
2018-12-26T06:09:01.655Z,25.67
2018-12-26T06:11:30.981Z,25.97
2018-12-26T06:14:00.275Z,25.70
2018-12-26T06:16:29.535Z,23.23
2018-12-26T06:18:58.741Z,26.60
2018-12-26T06:21:27.929Z,23.07
2018-12-26T06:23:57.310Z,24.50
2018-12-26T06:26:26.577Z,24.17
2018-12-26T06:28:55.839Z,26.30
2018-12-26T06:31:25.094Z,25.07
2018-12-26T06:33:54.378Z,29.10
2018-12-26T06:36:23.663Z,26.47
2018-12-26T06:38:52.934Z,28.03
2018-12-26T06:41:22.216Z,31.07
2018-12-26T06:43:51.798Z,30.77
2018-12-26T06:46:21.083Z,31.77
2018-12-26T06:48:50.362Z,30.97
2018-12-26T06:51:19.642Z,33.67
2018-12-26T06:53:49.013Z,33.00
2018-12-26T06:56:18.379Z,31.87
2018-12-26T06:58:47.675Z,31.37
2018-12-26T07:01:16.995Z,31.10
2018-12-26T07:03:46.365Z,35.40
2018-12-26T07:06:15.649Z,36.33
2018-12-26T07:08:45.073Z,30.90
2018-12-26T07:11:14.433Z,31.90
2018-12-26T07:13:43.674Z,33.43
2018-12-26T07:16:14.457Z,31.53
2018-12-26T07:18:43.786Z,31.97
2018-12-26T07:21:13.093Z,33.00
2018-12-26T07:23:42.385Z,31.13
2018-12-26T07:26:11.717Z,32.10
2018-12-26T07:28:41.005Z,29.43
2018-12-26T07:31:10.329Z,30.93
2018-12-26T07:33:39.641Z,33.20
2018-12-26T07:36:08.913Z,32.43
2018-12-26T07:38:38.154Z,32.10
2018-12-26T07:41:07.377Z,27.93
2018-12-26T07:43:36.758Z,32.83
2018-12-26T07:46:06.130Z,32.33
2018-12-26T07:48:35.494Z,35.83
2018-12-26T07:51:04.726Z,28.00
2018-12-26T07:53:33.995Z,28.93
2018-12-26T07:56:03.298Z,32.37
2018-12-26T07:58:32.680Z,29.00
2018-12-26T08:01:03.079Z,33.80
2018-12-26T08:03:32.674Z,35.63
2018-12-26T08:06:01.959Z,28.60
2018-12-26T08:08:31.226Z,36.27
2018-12-26T08:11:00.595Z,34.03
2018-12-26T08:13:29.866Z,31.53
2018-12-26T08:15:59.117Z,31.53
2018-12-26T08:18:28.473Z,35.20
2018-12-26T08:20:57.777Z,36.60
2018-12-26T08:23:27.053Z,41.97
2018-12-26T08:25:56.413Z,41.57
2018-12-26T08:28:26.725Z,45.47
2018-12-26T08:30:56.374Z,44.47
2018-12-26T08:33:25.999Z,44.50
2018-12-26T08:35:55.437Z,45.87
2018-12-26T08:38:24.744Z,41.50
2018-12-26T08:40:54.121Z,45.63
2018-12-26T08:43:23.563Z,49.33
2018-12-26T08:48:20.022Z,50.90
2018-12-26T08:50:51.924Z,45.83
2018-12-26T08:53:21.594Z,41.23
2018-12-26T08:55:51.595Z,44.67
2018-12-26T08:58:21.044Z,52.33
2018-12-26T09:00:50.926Z,43.57
2018-12-26T09:03:20.532Z,45.37
2018-12-26T09:05:51.318Z,48.27
2018-12-26T09:08:39.595Z,42.20
2018-12-26T09:11:28.289Z,44.83
2018-12-26T09:13:57.551Z,45.53
2018-12-26T09:16:26.818Z,45.07
2018-12-26T09:18:56.208Z,38.47
2018-12-26T09:21:25.581Z,49.73
2018-12-26T09:23:54.906Z,43.37
2018-12-26T09:26:24.268Z,42.73
2018-12-26T09:28:53.556Z,42.60
2018-12-26T09:31:22.859Z,40.70
2018-12-26T09:33:52.267Z,43.70
2018-12-26T09:36:21.591Z,45.67
2018-12-26T09:38:50.903Z,49.10
2018-12-26T09:41:20.234Z,49.97
2018-12-26T09:43:49.917Z,45.43
2018-12-26T09:46:19.143Z,42.77
2018-12-26T09:48:48.460Z,47.83
2018-12-26T09:51:17.742Z,41.67
2018-12-26T09:53:47.057Z,46.17
2018-12-26T09:56:16.246Z,44.27
2018-12-26T09:58:52.455Z,51.27
2018-12-26T10:01:16.545Z,44.67
2018-12-26T10:03:46.178Z,43.67
2018-12-26T10:06:15.794Z,42.00
2018-12-26T10:08:45.163Z,46.97
2018-12-26T10:11:14.590Z,44.37
2018-12-26T10:13:43.981Z,51.63
2018-12-26T10:16:13.322Z,51.47
2018-12-26T10:18:42.723Z,52.43
2018-12-26T10:21:12.110Z,47.93
2018-12-26T10:23:41.486Z,49.53
2018-12-26T10:26:10.782Z,48.17
2018-12-26T10:28:40.050Z,46.73
2018-12-26T10:31:09.459Z,43.20
2018-12-26T10:33:38.855Z,45.63
2018-12-26T10:36:08.251Z,42.17
2018-12-26T10:38:37.464Z,45.60
2018-12-26T10:41:06.773Z,49.23
2018-12-26T10:43:36.063Z,53.03
2018-12-26T10:46:05.414Z,54.93
2018-12-26T10:48:34.699Z,51.07
2018-12-26T10:51:05.137Z,53.13
2018-12-26T10:53:34.432Z,44.93
2018-12-26T10:56:03.731Z,52.03
2018-12-26T10:58:33.046Z,45.90
2018-12-26T11:01:02.324Z,46.40
2018-12-26T11:03:31.645Z,48.10
2018-12-26T11:06:01.006Z,47.23
2018-12-26T11:08:30.257Z,53.50
2018-12-26T11:10:59.586Z,47.43
2018-12-26T11:13:28.941Z,51.63
2018-12-26T11:15:58.338Z,50.90
2018-12-26T11:18:27.786Z,52.03
2018-12-26T11:20:57.608Z,55.63
2018-12-26T11:23:26.986Z,48.23
2018-12-26T11:25:56.472Z,56.73
2018-12-26T11:28:25.830Z,55.80
2018-12-26T11:30:55.150Z,49.73
2018-12-26T11:33:24.541Z,52.10
2018-12-26T11:35:53.914Z,48.17
2018-12-26T11:38:23.285Z,57.10
2018-12-26T11:40:52.656Z,55.97
2018-12-26T11:43:21.911Z,49.33
2018-12-26T11:45:51.269Z,57.03
2018-12-26T11:48:20.504Z,54.27
2018-12-26T11:50:49.866Z,55.93
2018-12-26T11:53:19.223Z,59.53
2018-12-26T11:55:48.414Z,56.43
2018-12-26T11:58:17.918Z,53.50
2018-12-26T12:00:47.147Z,57.83
2018-12-26T12:03:16.573Z,56.40
2018-12-26T12:05:46.058Z,59.93
2018-12-26T12:08:17.428Z,58.80
2018-12-26T12:10:46.687Z,57.20
2018-12-26T12:13:16.006Z,61.67
2018-12-26T12:15:45.291Z,61.20
2018-12-26T12:18:15.792Z,56.30
2018-12-26T12:20:46.535Z,64.07
2018-12-26T12:23:15.834Z,57.90
2018-12-26T12:25:45.191Z,63.17
2018-12-26T12:28:14.516Z,63.27
2018-12-26T12:30:43.806Z,70.87
2018-12-26T12:33:13.722Z,63.17
2018-12-26T12:35:45.462Z,63.33
2018-12-26T12:38:14.740Z,68.07
2018-12-26T12:40:44.424Z,70.13
2018-12-26T12:43:13.688Z,60.80
2018-12-26T12:45:43.071Z,66.70
2018-12-26T12:48:12.610Z,65.23
2018-12-26T12:50:41.974Z,72.90
2018-12-26T12:53:11.297Z,70.60
2018-12-26T12:55:41.997Z,71.63
2018-12-26T12:58:11.380Z,62.13
2018-12-26T13:00:40.725Z,67.03
2018-12-26T13:03:10.115Z,69.40
2018-12-26T13:05:39.377Z,69.20
2018-12-26T13:08:08.720Z,68.90
2018-12-26T13:10:39.019Z,75.57
2018-12-26T13:13:08.215Z,73.00
2018-12-26T13:15:37.495Z,71.90
2018-12-26T13:18:06.753Z,68.77
2018-12-26T13:20:36.025Z,67.57
2018-12-26T13:23:05.282Z,74.47
2018-12-26T13:25:34.546Z,71.00
2018-12-26T13:28:03.834Z,81.53
2018-12-26T13:30:33.090Z,81.20
2018-12-26T13:33:02.390Z,72.03
2018-12-26T13:35:31.668Z,76.77
2018-12-26T13:38:01.152Z,75.93
2018-12-26T13:40:30.455Z,72.97
2018-12-26T13:42:59.725Z,68.53
2018-12-26T13:45:29.050Z,67.60
2018-12-26T13:47:58.366Z,66.77
2018-12-26T13:50:27.741Z,71.00
2018-12-26T13:52:57.013Z,72.47
2018-12-26T13:55:26.437Z,74.90
2018-12-26T13:57:55.746Z,71.70
2018-12-26T14:00:25.040Z,77.57
2018-12-26T14:02:54.378Z,88.40
2018-12-26T14:05:23.699Z,76.67
2018-12-26T14:07:53.077Z,73.23
2018-12-26T14:10:22.450Z,76.07
2018-12-26T14:12:51.706Z,76.97
2018-12-26T14:15:21.072Z,75.93
2018-12-26T14:17:50.405Z,78.47
2018-12-26T14:20:19.675Z,78.70
2018-12-26T14:22:48.995Z,76.90
2018-12-26T14:25:18.363Z,83.93
2018-12-26T14:27:47.626Z,80.47
2018-12-26T14:30:16.954Z,83.53
2018-12-26T14:32:46.429Z,76.00
2018-12-26T14:35:15.846Z,72.87
2018-12-26T14:37:45.171Z,76.20
2018-12-26T14:40:14.612Z,85.27
2018-12-26T14:42:44.007Z,81.27
2018-12-26T14:45:13.296Z,76.83
2018-12-26T14:47:42.530Z,84.47
2018-12-26T14:50:11.912Z,78.60
2018-12-26T14:52:41.206Z,89.53
2018-12-26T14:55:10.565Z,83.80
2018-12-26T14:57:39.813Z,87.50
2018-12-26T15:00:09.259Z,84.77
2018-12-26T15:02:38.605Z,84.17
2018-12-26T15:05:07.926Z,94.23
2018-12-26T15:07:37.273Z,82.00
2018-12-26T15:10:07.008Z,83.67
2018-12-26T15:12:36.343Z,80.57
2018-12-26T15:15:06.267Z,83.43
2018-12-26T15:17:35.583Z,84.17
2018-12-26T15:20:05.367Z,85.53
2018-12-26T15:22:34.669Z,83.60
2018-12-26T15:25:04.100Z,79.43
2018-12-26T15:27:33.383Z,89.17
2018-12-26T15:30:02.753Z,89.77
2018-12-26T15:32:32.006Z,83.97
2018-12-26T15:35:03.383Z,87.67
2018-12-26T15:37:32.498Z,83.30
2018-12-26T15:40:01.799Z,82.53
2018-12-26T15:42:31.114Z,89.73
2018-12-26T15:45:00.453Z,86.70
2018-12-26T15:47:29.902Z,84.83
2018-12-26T15:49:59.146Z,91.03
2018-12-26T15:52:28.436Z,93.37
2018-12-26T15:54:57.701Z,94.40
2018-12-26T15:57:26.982Z,92.10
2018-12-26T15:59:56.172Z,79.50
2018-12-26T16:02:25.571Z,92.33
2018-12-26T16:04:54.847Z,82.53
2018-12-26T16:07:24.125Z,83.63
2018-12-26T16:09:53.405Z,90.37
2018-12-26T16:12:22.866Z,93.20
2018-12-26T16:14:52.181Z,89.73
2018-12-26T16:17:21.515Z,92.33
2018-12-26T16:19:52.251Z,88.97
2018-12-26T16:22:21.516Z,91.63
2018-12-26T16:24:51.004Z,90.70
2018-12-26T16:27:20.353Z,97.23
2018-12-26T16:29:49.652Z,90.27
2018-12-26T16:32:21.905Z,87.97
2018-12-26T16:34:51.331Z,90.67
2018-12-26T16:37:20.639Z,94.50
2018-12-26T16:39:49.937Z,104.77
2018-12-26T16:42:19.534Z,95.57
2018-12-26T16:44:48.803Z,92.07
2018-12-26T16:47:18.098Z,104.63
2018-12-26T16:49:47.721Z,88.60
2018-12-26T16:52:17.143Z,83.60
2018-12-26T16:54:46.463Z,93.50
2018-12-26T16:57:15.753Z,93.97
2018-12-26T16:59:45.119Z,91.03
2018-12-26T17:02:14.471Z,100.43
2018-12-26T17:04:43.800Z,95.37
2018-12-26T17:07:13.130Z,99.13
2018-12-26T17:09:42.500Z,95.83
2018-12-26T17:12:11.843Z,92.10
2018-12-26T17:14:41.154Z,94.57
2018-12-26T17:17:10.472Z,90.67
2018-12-26T17:19:39.757Z,89.90
2018-12-26T17:22:09.100Z,84.07
2018-12-26T17:24:38.380Z,89.93
2018-12-26T17:27:07.675Z,87.23
2018-12-26T17:29:37.106Z,89.00
2018-12-26T17:32:06.919Z,92.60
2018-12-26T17:34:36.319Z,84.53
2018-12-26T17:37:05.566Z,91.47
2018-12-26T17:39:34.972Z,88.20
2018-12-26T17:42:04.274Z,99.00
2018-12-26T17:44:33.698Z,94.87
2018-12-26T17:47:02.989Z,93.63
2018-12-26T17:49:32.327Z,84.70
2018-12-26T17:52:01.791Z,90.60
2018-12-26T17:54:51.347Z,90.60
2018-12-26T17:57:29.043Z,91.83
2018-12-26T18:00:35.749Z,99.50
2018-12-26T18:03:05.110Z,94.10
2018-12-26T18:05:34.489Z,90.13
2018-12-26T18:08:03.822Z,90.27
2018-12-26T18:10:33.152Z,99.03
2018-12-26T18:13:02.419Z,93.50
2018-12-26T18:15:31.826Z,97.03
2018-12-26T18:18:01.155Z,107.33
2018-12-26T18:20:30.444Z,100.40
2018-12-26T18:22:59.723Z,108.23
2018-12-26T18:25:29.012Z,136.97
2018-12-26T18:27:58.425Z,135.57
2018-12-26T18:30:27.770Z,109.20
2018-12-26T18:32:57.094Z,133.70
2018-12-26T18:35:26.496Z,127.00
2018-12-26T18:37:55.943Z,119.40
2018-12-26T18:40:25.311Z,109.53
2018-12-26T18:42:54.594Z,105.90
2018-12-26T18:45:24.083Z,122.27
2018-12-26T18:47:53.419Z,120.97
2018-12-26T18:50:22.881Z,119.07
2018-12-26T18:52:52.233Z,126.73
2018-12-26T18:55:21.506Z,126.23
2018-12-26T18:57:50.861Z,119.77
2018-12-26T19:00:20.218Z,123.23
2018-12-26T19:02:51.615Z,120.46
2018-12-26T19:05:20.896Z,130.03
2018-12-26T19:07:50.286Z,115.30
2018-12-26T19:10:19.633Z,127.20
2018-12-26T19:12:48.927Z,116.17
2018-12-26T19:15:18.192Z,125.50
2018-12-26T19:17:47.466Z,134.17
2018-12-26T19:20:16.757Z,113.70
2018-12-26T19:22:47.074Z,119.53
2018-12-26T19:25:16.660Z,111.87
2018-12-26T19:27:45.916Z,118.97
2018-12-26T19:30:15.221Z,120.47
2018-12-26T19:32:44.855Z,109.47
2018-12-26T19:35:14.975Z,126.40
2018-12-26T19:37:44.251Z,118.27
2018-12-26T19:40:13.586Z,114.33
2018-12-26T19:42:42.930Z,115.77
2018-12-26T19:45:12.235Z,121.23
2018-12-26T19:47:41.535Z,124.93
2018-12-26T19:50:11.063Z,121.77
2018-12-26T19:52:40.446Z,118.70
2018-12-26T19:55:11.150Z,116.77
2018-12-26T19:57:40.529Z,122.53
2018-12-26T20:00:11.014Z,127.73
2018-12-26T20:02:40.329Z,130.03
2018-12-26T20:05:09.721Z,133.80
2018-12-26T20:07:39.084Z,128.90
2018-12-26T20:10:10.107Z,113.80
2018-12-26T20:12:40.104Z,120.80
2018-12-26T20:15:09.519Z,114.00
2018-12-26T20:17:38.764Z,112.13
2018-12-26T20:20:08.726Z,118.40
2018-12-26T20:22:37.926Z,113.40
2018-12-26T20:25:07.678Z,112.93
2018-12-26T20:27:37.009Z,102.07
2018-12-26T20:30:07.575Z,115.83
2018-12-26T20:32:36.852Z,99.90
2018-12-26T20:35:06.473Z,111.53
2018-12-26T20:37:35.772Z,98.57
2018-12-26T20:40:06.146Z,101.00
2018-12-26T20:42:35.429Z,96.27
2018-12-26T20:45:04.964Z,98.63
2018-12-26T20:47:34.255Z,101.70
2018-12-26T20:50:03.548Z,96.73
2018-12-26T20:52:32.850Z,91.17
2018-12-26T20:55:02.176Z,85.70
2018-12-26T20:57:31.440Z,87.87
2018-12-26T21:00:00.745Z,89.20
2018-12-26T21:02:30.262Z,90.93
2018-12-26T21:05:00.472Z,92.50
2018-12-26T21:07:30.460Z,96.43
2018-12-26T21:09:59.772Z,91.23
2018-12-26T21:12:30.552Z,92.90
2018-12-26T21:15:00.088Z,88.53
2018-12-26T21:17:29.579Z,85.17
2018-12-26T21:19:58.890Z,94.80
2018-12-26T21:22:28.221Z,97.90
2018-12-26T21:24:57.515Z,93.50
2018-12-26T21:27:27.006Z,98.50
2018-12-26T21:29:56.338Z,87.83
2018-12-26T21:32:25.693Z,93.70
2018-12-26T21:34:55.053Z,84.40
2018-12-26T21:37:24.328Z,86.33
2018-12-26T21:39:53.627Z,88.87
2018-12-26T21:42:22.922Z,91.50
2018-12-26T21:44:53.382Z,99.50
2018-12-26T21:47:22.727Z,91.47
2018-12-26T21:49:52.053Z,117.17
2018-12-26T21:52:21.323Z,99.73
2018-12-26T21:54:50.627Z,108.33
2018-12-26T21:57:19.882Z,84.77
2018-12-26T21:59:49.294Z,94.37
2018-12-26T22:02:22.572Z,87.47
2018-12-26T22:04:49.690Z,91.00
2018-12-26T22:07:18.962Z,95.87
2018-12-26T22:09:48.340Z,95.60
2018-12-26T22:12:17.769Z,87.60
2018-12-26T22:14:47.034Z,105.63
2018-12-26T22:17:16.320Z,99.73
2018-12-26T22:19:45.717Z,86.57
2018-12-26T22:22:15.035Z,99.47
2018-12-26T22:24:44.359Z,92.27
2018-12-26T22:27:13.644Z,99.30
2018-12-26T22:29:43.013Z,94.83
2018-12-26T22:32:12.750Z,89.80
2018-12-26T22:34:42.006Z,97.77
2018-12-26T22:37:11.486Z,100.03
2018-12-26T22:39:40.860Z,88.17
2018-12-26T22:42:10.197Z,82.17
2018-12-26T22:44:39.588Z,90.13
2018-12-26T22:47:09.044Z,86.90
2018-12-26T22:49:38.281Z,84.80
2018-12-26T22:52:07.502Z,78.20
2018-12-26T22:54:38.605Z,81.47
2018-12-26T22:57:07.907Z,75.70
2018-12-26T22:59:37.277Z,80.17
2018-12-26T23:02:06.661Z,82.17
2018-12-26T23:04:36.067Z,76.37
2018-12-26T23:07:05.409Z,70.10
2018-12-26T23:09:34.671Z,70.77
2018-12-26T23:12:03.966Z,79.37
2018-12-26T23:14:33.352Z,71.67
2018-12-26T23:17:02.615Z,68.47
2018-12-26T23:19:31.985Z,71.73
2018-12-26T23:22:01.409Z,72.60
2018-12-26T23:24:30.765Z,67.77
2018-12-26T23:27:00.031Z,68.83
2018-12-26T23:29:30.942Z,66.97
2018-12-26T23:32:00.507Z,68.40
2018-12-26T23:34:29.810Z,67.43
2018-12-26T23:36:59.074Z,63.30
2018-12-26T23:39:28.405Z,60.67
2018-12-26T23:41:57.673Z,56.57
2018-12-26T23:44:26.986Z,59.50
2018-12-26T23:46:56.276Z,64.03
2018-12-26T23:49:25.505Z,64.30
2018-12-26T23:51:54.866Z,60.63
2018-12-26T23:54:24.143Z,58.80
2018-12-26T23:56:53.414Z,51.43
2018-12-26T23:59:22.759Z,53.73
